Time;durP1;ratioP1;P1;durP2;ratioP2;P2;SDS_P1;SDS_P2;PMS_P1;PMS_P2;Temp;Humidity;BMP_temperature;BMP_pressure;BME280_temperature;BME280_humidity;BME280_pressure;Samples;Min_cycle;Max_cycle;Signal;HPM_P1;HPM_P2
2024/01/03 00:00:28;;;;;;;0.50;0.40;;;9.60;99.90;;;;;;5033214;28;20429;-51
2024/01/03 00:02:55;;;;;;;0.50;0.40;;;9.60;99.90;;;;;;5031148;28;20189;-51
2024/01/03 00:05:23;;;;;;;0.50;0.50;;;9.60;99.90;;;;;;5027893;28;20477;-52
2024/01/03 00:07:49;;;;;;;0.50;0.40;;;9.70;99.90;;;;;;5033648;28;20477;-51
2024/01/03 00:10:46;;;;;;;0.50;0.50;;;9.70;99.90;;;;;;5034177;28;20455;-51
2024/01/03 00:13:32;;;;;;;0.50;0.40;;;9.70;99.90;;;;;;5026810;28;20450;-52
2024/01/03 00:16:03;;;;;;;0.50;0.40;;;9.70;99.90;;;;;;5028027;28;20500;-52
2024/01/03 00:18:36;;;;;;;0.50;0.50;;;9.70;99.90;;;;;;5026734;28;20435;-52
2024/01/03 00:21:03;;;;;;;0.50;0.40;;;9.70;99.90;;;;;;5028430;28;20438;-52
2024/01/03 00:23:37;;;;;;;0.50;0.40;;;9.70;99.90;;;;;;5027144;28;20497;-52
2024/01/03 00:26:04;;;;;;;0.50;0.40;;;9.70;99.90;;;;;;5026927;28;20460;-51
2024/01/03 00:28:30;;;;;;;0.50;0.40;;;9.80;99.90;;;;;;5029409;28;20456;-51
2024/01/03 00:30:56;;;;;;;0.70;0.50;;;9.80;99.90;;;;;;5029640;28;20430;-51
2024/01/03 00:33:21;;;;;;;0.50;0.40;;;9.80;99.90;;;;;;5029046;28;20195;-51
2024/01/03 00:35:47;;;;;;;0.50;0.40;;;9.80;99.90;;;;;;5027109;28;20537;-51
2024/01/03 00:38:13;;;;;;;0.50;0.40;;;9.70;99.90;;;;;;5029234;28;20187;-51
2024/01/03 00:40:55;;;;;;;0.50;0.50;;;9.70;99.90;;;;;;5026329;28;20671;-51
2024/01/03 00:43:21;;;;;;;0.50;0.40;;;9.70;98.90;;;;;;5031680;28;20442;-51
2024/01/03 00:45:48;;;;;;;0.50;0.40;;;9.80;99.90;;;;;;5026898;28;20517;-51
2024/01/03 00:48:15;;;;;;;0.50;0.40;;;9.80;64.50;;;;;;5027737;28;20434;-51
2024/01/03 00:50:41;;;;;;;1.20;0.80;;;9.80;27.60;;;;;;5024320;28;20513;-51
2024/01/03 00:53:07;;;;;;;0.50;0.40;;;9.80;20.80;;;;;;5027050;28;20529;-52
2024/01/03 00:55:34;;;;;;;0.50;0.40;;;9.80;2.80;;;;;;5028781;28;20597;-51
2024/01/03 00:57:59;;;;;;;0.50;0.40;;;9.90;1.00;;;;;;5028597;28;20427;-51
2024/01/03 01:00:25;;;;;;;0.50;0.40;;;9.90;1.00;;;;;;5028414;28;20948;-51
2024/01/03 01:02:51;;;;;;;0.50;0.40;;;10.00;1.00;;;;;;5027339;28;20206;-52
2024/01/03 01:05:17;;;;;;;0.60;0.60;;;10.00;1.00;;;;;;5027111;28;20470;-52
2024/01/03 01:07:42;;;;;;;0.50;0.40;;;10.00;99.90;;;;;;5027627;28;20231;-52
2024/01/03 01:10:08;;;;;;;0.50;0.40;;;9.90;99.90;;;;;;5026858;28;20198;-52
2024/01/03 01:12:34;;;;;;;0.50;0.40;;;9.90;99.90;;;;;;5028125;28;20179;-52
2024/01/03 01:15:00;;;;;;;0.50;0.40;;;10.00;99.90;;;;;;5026098;28;20215;-52
2024/01/03 01:17:26;;;;;;;0.50;0.40;;;10.00;99.90;;;;;;5026985;28;20270;-52
2024/01/03 01:19:52;;;;;;;0.50;0.50;;;9.90;99.90;;;;;;5026614;28;20550;-52
2024/01/03 01:22:18;;;;;;;0.60;0.50;;;10.00;99.90;;;;;;5027018;28;20229;-52
2024/01/03 01:24:43;;;;;;;0.50;0.47;;;10.00;84.20;;;;;;5027857;28;20191;-52
2024/01/03 01:27:09;;;;;;;0.50;0.40;;;10.00;12.50;;;;;;5026335;28;20249;-52
2024/01/03 01:29:34;;;;;;;0.50;0.40;;;10.00;1.00;;;;;;5027721;28;20191;-52
2024/01/03 01:32:00;;;;;;;0.90;0.67;;;10.00;1.00;;;;;;5025486;28;20190;-52
2024/01/03 01:34:26;;;;;;;1.80;0.60;;;10.00;99.90;;;;;;5028133;28;20285;-52
2024/01/03 01:36:51;;;;;;;0.50;0.40;;;10.00;99.90;;;;;;5025711;28;20579;-52
2024/01/03 01:39:17;;;;;;;0.60;0.50;;;10.00;99.90;;;;;;5027222;28;20658;-53
2024/01/03 01:41:43;;;;;;;0.50;0.40;;;10.00;1.00;;;;;;5027873;28;20237;-52
2024/01/03 01:44:08;;;;;;;0.50;0.40;;;10.00;1.00;;;;;;5027339;28;20237;-52
2024/01/03 01:46:36;;;;;;;0.50;0.40;;;10.00;1.00;;;;;;5027096;28;20262;-52
2024/01/03 01:49:03;;;;;;;30.47;1.77;;;10.00;1.00;;;;;;5025444;28;20192;-52
2024/01/03 01:51:30;;;;;;;0.50;0.40;;;10.00;99.90;;;;;;5026841;28;20445;-52
2024/01/03 01:53:56;;;;;;;0.70;0.70;;;10.00;99.90;;;;;;5026538;28;20434;-52
2024/01/03 01:56:21;;;;;;;0.50;0.40;;;10.00;1.00;;;;;;5026351;28;20481;-52
2024/01/03 01:58:49;;;;;;;0.50;0.40;;;10.00;99.90;;;;;;5025535;28;20241;-51
2024/01/03 02:01:17;;;;;;;0.60;0.53;;;10.00;1.00;;;;;;5025278;28;20190;-52
2024/01/03 02:03:43;;;;;;;0.50;0.40;;;9.90;1.00;;;;;;5026998;28;20446;-52
2024/01/03 02:06:09;;;;;;;0.60;0.50;;;9.80;97.40;;;;;;5027861;28;20465;-52
2024/01/03 02:08:35;;;;;;;0.50;0.40;;;9.70;99.90;;;;;;5032549;28;20827;-51
2024/01/03 02:11:04;;;;;;;0.50;0.40;;;9.70;99.90;;;;;;5029422;28;20481;-52
2024/01/03 02:13:30;;;;;;;0.50;0.40;;;9.60;1.00;;;;;;5026816;28;20434;-52
2024/01/03 02:15:56;;;;;;;0.50;0.40;;;9.60;1.00;;;;;;5029535;28;20481;-52
2024/01/03 02:18:22;;;;;;;0.50;0.40;;;9.50;1.00;;;;;;5031463;28;20183;-52
2024/01/03 02:20:50;;;;;;;0.50;0.40;;;9.50;1.00;;;;;;5030774;28;20257;-52
2024/01/03 02:23:15;;;;;;;0.50;0.40;;;9.60;1.00;;;;;;5030169;28;20486;-52
2024/01/03 02:25:41;;;;;;;0.50;0.40;;;9.60;1.00;;;;;;5030890;28;20426;-52
2024/01/03 02:28:10;;;;;;;0.50;0.40;;;9.50;1.00;;;;;;5028303;28;20180;-52
2024/01/03 02:30:37;;;;;;;0.60;0.57;;;9.50;1.00;;;;;;5034194;28;20195;-51
2024/01/03 02:33:03;;;;;;;0.50;0.50;;;9.50;1.00;;;;;;5030328;28;20414;-52
2024/01/03 02:35:28;;;;;;;1.43;0.60;;;9.40;1.00;;;;;;5031457;28;20564;-52
2024/01/03 02:37:54;;;;;;;0.60;0.50;;;9.40;1.00;;;;;;5030671;28;20514;-51
2024/01/03 02:40:19;;;;;;;2.20;0.60;;;9.40;1.00;;;;;;5029050;28;20172;-52
2024/01/03 02:42:45;;;;;;;0.50;0.50;;;9.40;1.00;;;;;;5030363;28;20194;-52
2024/01/03 02:45:11;;;;;;;0.50;0.40;;;9.40;1.00;;;;;;5026813;28;20271;-52
2024/01/03 02:47:36;;;;;;;0.50;0.50;;;9.40;1.00;;;;;;5030042;28;20183;-51
2024/01/03 02:50:02;;;;;;;0.50;0.50;;;9.40;1.00;;;;;;5027912;28;20190;-52
2024/01/03 02:52:27;;;;;;;1.00;0.50;;;9.40;1.00;;;;;;5029895;28;20643;-52
2024/01/03 02:54:53;;;;;;;0.67;0.57;;;9.50;99.90;;;;;;5029875;28;20227;-52
2024/01/03 02:57:19;;;;;;;0.50;0.40;;;9.40;99.90;;;;;;5030754;28;20195;-52
2024/01/03 02:59:44;;;;;;;0.80;0.50;;;9.40;99.90;;;;;;5030016;28;20261;-52
2024/01/03 03:02:10;;;;;;;0.50;0.40;;;9.40;99.90;;;;;;5028263;28;20266;-52
2024/01/03 03:04:35;;;;;;;0.50;0.40;;;9.40;99.90;;;;;;5031749;28;20642;-52
2024/01/03 03:07:01;;;;;;;0.50;0.40;;;9.40;1.00;;;;;;5028758;28;20698;-51
2024/01/03 03:09:26;;;;;;;0.60;0.50;;;9.30;1.00;;;;;;5029769;28;20191;-52
2024/01/03 03:11:52;;;;;;;0.50;0.40;;;9.30;1.00;;;;;;5028858;28;20200;-51
2024/01/03 03:14:17;;;;;;;0.60;0.60;;;9.30;4.60;;;;;;5029247;28;20191;-52
2024/01/03 03:16:43;;;;;;;1.00;0.50;;;9.30;1.00;;;;;;5026858;28;20266;-52
2024/01/03 03:19:09;;;;;;;0.50;0.40;;;9.30;1.00;;;;;;5029509;28;20203;-51
2024/01/03 03:21:34;;;;;;;0.50;0.40;;;9.30;1.00;;;;;;5029308;28;20188;-51
2024/01/03 03:24:01;;;;;;;1.60;0.50;;;9.30;1.00;;;;;;5029030;28;20185;-51
2024/01/03 03:26:26;;;;;;;0.50;0.40;;;9.20;1.00;;;;;;5029340;28;20184;-52
2024/01/03 03:28:52;;;;;;;0.50;0.50;;;9.20;92.60;;;;;;5028183;28;20430;-52
2024/01/03 03:31:18;;;;;;;0.50;0.50;;;9.10;99.90;;;;;;5028476;28;20185;-51
2024/01/03 03:33:43;;;;;;;0.50;0.40;;;9.10;1.00;;;;;;5027632;28;20192;-51
2024/01/03 03:36:15;;;;;;;0.50;0.50;;;9.10;1.00;;;;;;5029532;28;20585;-51
2024/01/03 03:38:41;;;;;;;2.53;0.50;;;9.00;99.90;;;;;;5028425;28;20191;-51
2024/01/03 03:41:11;;;;;;;0.50;0.40;;;9.00;1.00;;;;;;5027507;28;20786;-51
2024/01/03 03:43:37;;;;;;;0.70;0.70;;;9.00;1.00;;;;;;5026358;28;20533;-51
2024/01/03 03:46:03;;;;;;;0.60;0.50;;;8.90;29.00;;;;;;5027161;28;20523;-52
2024/01/03 03:48:28;;;;;;;0.50;0.40;;;8.90;99.90;;;;;;5028961;28;20434;-51
2024/01/03 03:50:54;;;;;;;2.20;0.80;;;8.90;99.90;;;;;;5030286;28;20543;-52
2024/01/03 03:56:41;;;;;;;0.50;0.50;;;8.80;1.00;;;;;;5029132;28;20222;-51
2024/01/03 03:59:07;;;;;;;0.50;0.40;;;8.80;1.00;;;;;;5028022;28;20430;-52
2024/01/03 04:01:33;;;;;;;0.60;0.50;;;8.80;1.00;;;;;;5027182;28;20270;-51
2024/01/03 04:03:59;;;;;;;4.40;1.10;;;8.70;1.00;;;;;;5030397;28;20239;-51
2024/01/03 04:06:24;;;;;;;0.50;0.40;;;8.70;1.00;;;;;;5029158;28;20478;-51
2024/01/03 04:08:50;;;;;;;0.50;0.40;;;8.70;1.00;;;;;;5024194;28;20212;-51
2024/01/03 04:11:16;;;;;;;0.50;0.40;;;8.60;1.00;;;;;;5029124;28;20175;-51
2024/01/03 04:13:41;;;;;;;0.50;0.40;;;8.60;1.00;;;;;;5027208;28;20430;-51
2024/01/03 04:16:10;;;;;;;0.70;0.50;;;8.60;1.00;;;;;;5028354;28;20306;-51
2024/01/03 04:18:36;;;;;;;0.50;0.40;;;8.60;1.00;;;;;;5026522;28;20224;-51
2024/01/03 04:21:05;;;;;;;0.50;0.40;;;8.60;1.00;;;;;;5028361;28;20521;-51
2024/01/03 04:23:31;;;;;;;0.50;0.40;;;8.60;1.00;;;;;;5029838;28;20461;-52
2024/01/03 04:25:57;;;;;;;0.50;0.40;;;8.60;1.00;;;;;;5028410;28;20461;-51
2024/01/03 04:28:22;;;;;;;0.50;0.50;;;8.60;99.90;;;;;;5026616;28;20824;-52
2024/01/03 04:30:48;;;;;;;0.50;0.50;;;8.60;99.90;;;;;;5028492;28;20222;-51
2024/01/03 04:33:14;;;;;;;1.47;0.70;;;8.60;99.90;;;;;;5027777;28;20184;-51
2024/01/03 04:35:39;;;;;;;0.70;0.70;;;8.60;99.90;;;;;;5028246;28;20281;-51
2024/01/03 04:38:05;;;;;;;0.70;0.70;;;8.60;99.90;;;;;;5026870;28;20184;-52
2024/01/03 04:40:32;;;;;;;2.70;0.50;;;8.60;99.90;;;;;;5029220;28;20198;-51
2024/01/03 04:42:58;;;;;;;0.50;0.40;;;8.60;99.90;;;;;;5026692;28;20198;-52
2024/01/03 04:45:23;;;;;;;0.70;0.60;;;8.50;99.90;;;;;;5025660;28;20524;-51
2024/01/03 04:47:49;;;;;;;0.60;0.50;;;8.50;99.90;;;;;;5027073;28;20535;-52
2024/01/03 04:50:14;;;;;;;0.60;0.40;;;8.50;99.90;;;;;;5030920;28;20190;-51
2024/01/03 04:52:40;;;;;;;0.50;0.40;;;8.50;99.90;;;;;;5027998;28;20180;-52
2024/01/03 04:55:06;;;;;;;0.50;0.40;;;8.50;1.00;;;;;;5026663;28;20215;-51
2024/01/03 04:57:35;;;;;;;0.50;0.50;;;8.50;1.00;;;;;;5027251;28;20220;-52
2024/01/03 05:00:01;;;;;;;0.50;0.40;;;8.50;1.00;;;;;;5026790;28;20426;-51
2024/01/03 05:02:27;;;;;;;0.90;0.50;;;8.50;1.00;;;;;;5027427;28;20504;-52
2024/01/03 05:04:53;;;;;;;0.60;0.47;;;8.50;1.00;;;;;;5026765;28;20942;-52
2024/01/03 05:07:18;;;;;;;0.93;0.50;;;8.60;1.00;;;;;;5027062;28;20231;-52
2024/01/03 05:09:44;;;;;;;0.50;0.50;;;8.50;1.00;;;;;;5027788;28;20179;-52
2024/01/03 05:12:10;;;;;;;0.50;0.40;;;8.50;1.00;;;;;;5026992;28;20450;-51
2024/01/03 05:14:36;;;;;;;0.50;0.40;;;8.50;1.00;;;;;;5028077;28;20207;-52
2024/01/03 05:17:02;;;;;;;0.70;0.50;;;8.50;1.00;;;;;;5025650;28;20445;-51
2024/01/03 05:19:27;;;;;;;0.50;0.40;;;8.50;1.00;;;;;;5028100;28;20194;-52
2024/01/03 05:21:53;;;;;;;0.50;0.40;;;8.60;1.00;;;;;;5025977;28;20192;-52
2024/01/03 05:24:19;;;;;;;0.50;0.40;;;8.60;7.80;;;;;;5026549;28;20183;-52
2024/01/03 05:26:45;;;;;;;5.23;0.57;;;8.60;6.90;;;;;;5026243;28;20278;-51
2024/01/03 05:29:11;;;;;;;0.50;0.40;;;8.60;5.20;;;;;;5027022;28;20576;-52
2024/01/03 05:31:36;;;;;;;0.50;0.40;;;8.60;16.00;;;;;;5025342;28;20680;-51
2024/01/03 05:34:02;;;;;;;0.60;0.50;;;8.60;30.10;;;;;;5026737;28;20189;-52
2024/01/03 05:36:27;;;;;;;0.50;0.40;;;8.70;1.00;;;;;;5027270;28;20601;-51
2024/01/03 05:38:53;;;;;;;0.60;0.50;;;8.70;1.00;;;;;;5025912;28;20279;-52
2024/01/03 05:41:18;;;;;;;3.43;0.80;;;8.70;1.00;;;;;;5026758;28;20183;-51
2024/01/03 05:43:44;;;;;;;0.50;0.40;;;8.60;7.20;;;;;;5025368;28;20653;-51
2024/01/03 05:46:10;;;;;;;0.60;0.50;;;8.70;32.80;;;;;;5027591;28;20639;-52
2024/01/03 05:48:36;;;;;;;0.60;0.50;;;8.70;38.80;;;;;;5025855;28;20489;-51
2024/01/03 05:51:02;;;;;;;0.50;0.40;;;8.70;4.60;;;;;;5026442;28;20587;-51
2024/01/03 05:53:28;;;;;;;0.50;0.50;;;8.70;1.00;;;;;;5025795;28;20195;-52
2024/01/03 05:55:53;;;;;;;0.50;0.40;;;8.70;1.00;;;;;;5025557;28;20977;-51
2024/01/03 05:58:19;;;;;;;0.50;0.40;;;8.70;1.00;;;;;;5025352;28;20195;-51
2024/01/03 06:00:44;;;;;;;0.60;0.53;;;8.70;1.00;;;;;;5026843;28;20194;-52
2024/01/03 06:03:10;;;;;;;0.50;0.40;;;8.70;1.00;;;;;;5024794;28;20230;-51
2024/01/03 06:05:36;;;;;;;0.50;0.40;;;8.80;1.00;;;;;;5025761;28;20207;-52
2024/01/03 06:08:01;;;;;;;0.50;0.50;;;8.80;1.00;;;;;;5025382;28;21286;-52
2024/01/03 06:10:27;;;;;;;0.60;0.50;;;8.80;1.00;;;;;;5026366;28;20286;-52
2024/01/03 06:12:52;;;;;;;0.50;0.40;;;8.80;1.00;;;;;;5025056;28;20235;-51
2024/01/03 06:15:18;;;;;;;0.50;0.40;;;8.80;1.00;;;;;;5025271;28;20219;-51
2024/01/03 06:17:43;;;;;;;0.50;0.40;;;8.80;1.00;;;;;;5025370;28;20187;-52
2024/01/03 06:20:09;;;;;;;2.07;0.60;;;8.80;1.00;;;;;;5026360;28;20190;-51
2024/01/03 06:22:35;;;;;;;0.50;0.50;;;8.80;1.00;;;;;;5027162;28;20191;-52
2024/01/03 06:25:00;;;;;;;0.50;0.40;;;8.80;1.00;;;;;;5025794;28;20274;-51
2024/01/03 06:27:26;;;;;;;0.50;0.40;;;8.80;1.00;;;;;;5028056;28;20194;-51
2024/01/03 06:29:51;;;;;;;0.50;0.40;;;8.70;1.00;;;;;;5025059;28;20188;-51
2024/01/03 06:32:17;;;;;;;0.60;0.40;;;8.80;1.00;;;;;;5026905;28;20199;-52
2024/01/03 06:34:42;;;;;;;0.50;0.43;;;8.70;1.00;;;;;;5025560;28;20229;-52
2024/01/03 06:37:08;;;;;;;0.50;0.40;;;8.70;1.00;;;;;;5027096;28;20270;-52
2024/01/03 06:39:34;;;;;;;0.50;0.40;;;8.70;1.00;;;;;;5024799;28;20184;-53
2024/01/03 06:41:59;;;;;;;0.50;0.40;;;8.70;1.00;;;;;;5024822;28;20184;-52
2024/01/03 06:44:26;;;;;;;0.50;0.40;;;8.70;1.00;;;;;;5027454;28;20183;-52
2024/01/03 06:46:51;;;;;;;0.50;0.50;;;8.70;1.00;;;;;;5025728;28;20192;-52
2024/01/03 06:49:17;;;;;;;0.50;0.40;;;8.60;1.00;;;;;;5026453;28;20436;-52
2024/01/03 06:51:44;;;;;;;0.50;0.40;;;8.60;1.00;;;;;;5027523;28;20268;-52
2024/01/03 06:54:09;;;;;;;0.50;0.40;;;8.60;1.00;;;;;;5030466;28;20949;-52
2024/01/03 06:56:35;;;;;;;0.50;0.40;;;8.60;1.00;;;;;;5030140;28;20516;-52
2024/01/03 06:59:00;;;;;;;0.50;0.50;;;8.60;1.00;;;;;;5028403;28;20266;-52
2024/01/03 07:01:26;;;;;;;1.23;0.60;;;8.60;1.00;;;;;;5031359;28;20196;-52
2024/01/03 07:03:52;;;;;;;0.50;0.40;;;8.60;1.00;;;;;;5027738;28;20245;-52
2024/01/03 07:06:17;;;;;;;0.50;0.40;;;8.60;1.00;;;;;;5029779;28;20231;-52
2024/01/03 07:08:43;;;;;;;0.50;0.40;;;8.60;1.00;;;;;;5029060;28;20188;-52
2024/01/03 07:11:09;;;;;;;0.50;0.50;;;8.60;99.90;;;;;;5028508;28;20187;-52
2024/01/03 07:13:35;;;;;;;0.50;0.40;;;8.60;1.00;;;;;;5027404;28;20191;-52
2024/01/03 07:16:01;;;;;;;0.50;0.40;;;8.60;1.00;;;;;;5028916;28;20482;-52
2024/01/03 07:18:26;;;;;;;0.50;0.40;;;8.60;1.00;;;;;;5027499;28;20188;-52
2024/01/03 07:20:52;;;;;;;0.50;0.40;;;8.60;1.00;;;;;;5030027;28;20297;-52
2024/01/03 07:23:17;;;;;;;0.50;0.50;;;8.60;1.00;;;;;;5029715;28;20183;-53
2024/01/03 07:25:43;;;;;;;0.60;0.50;;;8.60;1.00;;;;;;5028077;28;20218;-52
2024/01/03 07:28:08;;;;;;;0.50;0.40;;;8.60;1.00;;;;;;5029041;28;20194;-52
2024/01/03 07:30:35;;;;;;;0.50;0.40;;;8.60;15.00;;;;;;5028638;28;20214;-51
2024/01/03 07:33:01;;;;;;;0.50;0.40;;;8.60;22.80;;;;;;5028789;28;20187;-51
2024/01/03 07:35:26;;;;;;;0.50;0.40;;;8.60;37.00;;;;;;5028752;28;20520;-51
2024/01/03 07:37:52;;;;;;;1.23;0.63;;;8.60;49.10;;;;;;5029215;28;20651;-51
2024/01/03 07:40:17;;;;;;;0.50;0.40;;;8.50;92.30;;;;;;5030029;28;20187;-51
2024/01/03 07:42:43;;;;;;;0.50;0.40;;;8.50;99.00;;;;;;5027955;28;20225;-51
2024/01/03 07:45:08;;;;;;;0.50;0.40;;;8.50;99.90;;;;;;5027575;28;20241;-51
2024/01/03 07:47:34;;;;;;;0.50;0.40;;;8.60;99.90;;;;;;5026848;28;20271;-51
2024/01/03 07:50:00;;;;;;;0.50;0.40;;;8.50;99.90;;;;;;5025969;28;20188;-51
2024/01/03 07:52:26;;;;;;;0.50;0.40;;;8.50;99.90;;;;;;5027892;28;20449;-51
2024/01/03 07:54:52;;;;;;;0.50;0.50;;;8.50;99.90;;;;;;5028978;28;20258;-51
2024/01/03 07:57:17;;;;;;;0.57;0.50;;;8.50;99.90;;;;;;5027615;28;21261;-52
2024/01/03 07:59:45;;;;;;;0.97;0.50;;;8.50;99.90;;;;;;5028116;28;20257;-51
2024/01/03 08:02:12;;;;;;;0.50;0.40;;;8.50;99.90;;;;;;5029158;28;20194;-51
2024/01/03 08:04:38;;;;;;;0.60;0.50;;;8.50;91.40;;;;;;5026006;28;20499;-52
2024/01/03 08:07:04;;;;;;;0.60;0.50;;;8.50;90.10;;;;;;5027381;28;20882;-52
2024/01/03 08:09:30;;;;;;;0.50;0.40;;;8.50;49.60;;;;;;5027477;28;20443;-52
2024/01/03 08:11:56;;;;;;;0.50;0.40;;;8.50;14.60;;;;;;5029606;28;20245;-52
2024/01/03 08:14:21;;;;;;;0.50;0.40;;;8.60;1.00;;;;;;5029104;28;20822;-52
2024/01/03 08:16:47;;;;;;;0.50;0.40;;;8.60;1.00;;;;;;5028206;28;20218;-53
2024/01/03 08:19:12;;;;;;;0.63;0.50;;;8.70;1.00;;;;;;5029463;28;20202;-53
2024/01/03 08:21:38;;;;;;;0.60;0.60;;;8.70;1.00;;;;;;5031164;28;20176;-53
2024/01/03 08:24:05;;;;;;;0.50;0.40;;;8.80;99.90;;;;;;5029217;28;20294;-53
2024/01/03 08:26:31;;;;;;;0.50;0.40;;;8.90;1.00;;;;;;5027276;28;20506;-53
2024/01/03 08:28:57;;;;;;;5.40;0.60;;;8.90;1.00;;;;;;5031404;28;20194;-53
2024/01/03 08:31:22;;;;;;;0.60;0.50;;;9.00;1.00;;;;;;5028235;28;20423;-53
2024/01/03 08:33:48;;;;;;;0.67;0.67;;;9.00;1.00;;;;;;5029602;28;20211;-53
2024/01/03 08:36:15;;;;;;;0.50;0.43;;;9.10;99.90;;;;;;5029303;28;20761;-53
2024/01/03 08:38:41;;;;;;;0.50;0.40;;;9.20;1.00;;;;;;5028682;28;20271;-53
2024/01/03 08:41:19;;;;;;;0.50;0.40;;;9.20;1.00;;;;;;5029712;28;20429;-55
2024/01/03 08:43:46;;;;;;;1.40;0.80;;;9.20;1.00;;;;;;5019450;28;20441;-51
2024/01/03 08:46:11;;;;;;;1.70;1.07;;;9.20;1.00;;;;;;5027208;28;20426;-52
2024/01/03 08:48:40;;;;;;;0.50;0.50;;;9.30;99.90;;;;;;5018503;28;20801;-53
2024/01/03 08:51:11;;;;;;;1.20;0.90;;;9.20;1.00;;;;;;5027084;28;20197;-54
2024/01/03 08:53:37;;;;;;;0.70;0.70;;;9.30;1.00;;;;;;5024291;28;20434;-52
2024/01/03 08:56:05;;;;;;;0.77;0.63;;;9.30;1.00;;;;;;5024924;28;20493;-53
2024/01/03 08:58:30;;;;;;;2.07;0.90;;;9.30;1.00;;;;;;5026910;28;20273;-52
2024/01/03 09:00:56;;;;;;;1.43;0.50;;;9.40;1.00;;;;;;5026872;28;20477;-54
2024/01/03 09:03:22;;;;;;;0.50;0.40;;;9.30;1.00;;;;;;5030101;28;20183;-53
2024/01/03 09:05:47;;;;;;;1.07;0.50;;;9.30;1.00;;;;;;5029754;28;20191;-54
2024/01/03 09:08:13;;;;;;;0.50;0.50;;;9.30;1.00;;;;;;5027504;28;20223;-51
2024/01/03 09:10:39;;;;;;;0.60;0.50;;;9.30;1.00;;;;;;5030307;28;20182;-54
2024/01/03 09:13:05;;;;;;;0.50;0.40;;;9.30;49.00;;;;;;5027141;28;20536;-53
2024/01/03 09:15:30;;;;;;;0.80;0.80;;;9.30;1.00;;;;;;5027736;28;20573;-55
2024/01/03 09:17:56;;;;;;;0.50;0.50;;;9.30;99.90;;;;;;5029455;28;20195;-53
2024/01/03 09:20:21;;;;;;;1.10;0.50;;;9.40;7.40;;;;;;5027409;28;20194;-53
2024/01/03 09:22:47;;;;;;;0.60;0.50;;;9.40;1.00;;;;;;5032600;28;20189;-53
2024/01/03 09:25:13;;;;;;;1.50;0.50;;;9.40;24.60;;;;;;5026943;28;20195;-53
2024/01/03 09:27:38;;;;;;;0.60;0.50;;;9.50;99.90;;;;;;5026713;28;20561;-53
2024/01/03 09:30:06;;;;;;;1.60;0.70;;;9.50;1.00;;;;;;5029335;28;20543;-53
2024/01/03 09:32:31;;;;;;;0.83;0.70;;;9.60;99.90;;;;;;5027764;28;20262;-54
2024/01/03 09:34:57;;;;;;;0.50;0.40;;;9.60;99.90;;;;;;5027658;28;20600;-53
2024/01/03 09:37:23;;;;;;;1.57;0.70;;;9.70;99.90;;;;;;5032549;28;20187;-52
2024/01/03 09:39:48;;;;;;;0.50;0.40;;;9.70;1.00;;;;;;5024966;28;20238;-54
2024/01/03 09:42:15;;;;;;;0.50;0.43;;;9.70;1.00;;;;;;5027888;28;20188;-52
2024/01/03 09:44:41;;;;;;;0.50;0.40;;;9.70;1.00;;;;;;5029169;28;20286;-52
2024/01/03 09:47:07;;;;;;;0.60;0.60;;;9.70;99.90;;;;;;5032604;28;20422;-51
2024/01/03 09:49:33;;;;;;;0.50;0.40;;;9.70;99.90;;;;;;5029221;28;21060;-52
2024/01/03 09:52:01;;;;;;;0.50;0.40;;;9.70;1.00;;;;;;5028376;28;20636;-53
2024/01/03 09:54:26;;;;;;;1.50;0.60;;;9.70;1.00;;;;;;5027603;28;20496;-52
2024/01/03 09:56:52;;;;;;;1.20;0.70;;;9.80;1.00;;;;;;5024754;28;20442;-53
2024/01/03 09:59:19;;;;;;;0.73;0.73;;;9.80;1.00;;;;;;5030341;28;20231;-52
2024/01/03 10:01:56;;;;;;;0.90;0.50;;;9.70;66.00;;;;;;5028357;28;20202;-53
2024/01/03 10:04:22;;;;;;;0.73;0.73;;;9.80;99.90;;;;;;5029153;28;20454;-51
2024/01/03 10:06:52;;;;;;;3.07;2.80;;;9.70;99.90;;;;;;5031495;28;20950;-52
2024/01/03 10:09:18;;;;;;;0.50;0.40;;;9.70;1.00;;;;;;5029277;28;20500;-52
2024/01/03 10:11:44;;;;;;;0.50;0.40;;;9.70;99.90;;;;;;5028490;28;20427;-50
2024/01/03 10:14:18;;;;;;;0.60;0.60;;;9.80;99.90;;;;;;5029406;28;20781;-52
2024/01/03 10:16:44;;;;;;;11.33;1.80;;;9.90;1.00;;;;;;5030555;28;20995;-51
2024/01/03 10:19:12;;;;;;;0.73;0.57;;;9.90;99.90;;;;;;5031525;28;20930;-52
2024/01/03 10:21:45;;;;;;;10.07;1.60;;;10.00;99.90;;;;;;5028215;28;20478;-51
2024/01/03 10:24:11;;;;;;;13.07;2.97;;;10.00;99.90;;;;;;5025083;28;20840;-53
2024/01/03 10:26:36;;;;;;;19.83;2.60;;;10.00;99.90;;;;;;5032339;28;20449;-52
2024/01/03 10:29:09;;;;;;;11.30;2.23;;;10.00;99.90;;;;;;5028609;28;20937;-52
2024/01/03 10:31:35;;;;;;;8.57;2.13;;;10.00;99.90;;;;;;5028640;28;20647;-53
2024/01/03 10:34:02;;;;;;;7.50;1.93;;;10.00;99.90;;;;;;5034562;28;20441;-52
2024/01/03 10:36:29;;;;;;;13.37;2.23;;;10.00;99.90;;;;;;5035935;28;20727;-51
2024/01/03 10:38:58;;;;;;;4.20;1.10;;;10.10;99.90;;;;;;5037632;28;20423;-52
2024/01/03 10:41:24;;;;;;;3.30;1.40;;;10.00;99.90;;;;;;5040815;28;20760;-53
2024/01/03 10:43:51;;;;;;;1.33;0.93;;;10.00;99.90;;;;;;5040051;28;20449;-52
2024/01/03 10:46:18;;;;;;;2.00;0.63;;;10.00;99.90;;;;;;5033645;28;20176;-53
2024/01/03 10:48:44;;;;;;;9.10;1.40;;;10.10;99.90;;;;;;5032062;28;20434;-51
2024/01/03 10:51:13;;;;;;;7.37;1.50;;;10.10;99.90;;;;;;5030011;28;20430;-50
2024/01/03 10:53:43;;;;;;;6.30;1.37;;;10.10;93.80;;;;;;5034277;28;20661;-51
2024/01/03 10:56:10;;;;;;;9.23;1.33;;;10.10;92.50;;;;;;5025462;28;20474;-51
2024/01/03 10:58:39;;;;;;;2.97;1.40;;;10.20;78.00;;;;;;5018859;28;20437;-51
2024/01/03 11:01:29;;;;;;;5.27;1.33;;;10.10;78.90;;;;;;5023050;28;20936;-52
2024/01/03 11:04:24;;;;;;;8.70;1.00;;;10.10;84.60;;;;;;5029262;28;20548;-52
2024/01/03 11:07:13;;;;;;;9.00;1.40;;;10.10;69.10;;;;;;5023120;28;20469;-52
2024/01/03 11:09:39;;;;;;;10.80;1.60;;;10.10;60.70;;;;;;5023692;28;20446;-51
2024/01/03 11:12:09;;;;;;;5.40;1.13;;;10.10;58.50;;;;;;5019268;28;20454;-52
2024/01/03 11:14:35;;;;;;;5.60;1.10;;;10.20;32.50;;;;;;5020062;28;20534;-52
2024/01/03 11:17:01;;;;;;;8.47;1.10;;;10.30;22.60;;;;;;5019924;28;20431;-52
2024/01/03 11:19:31;;;;;;;1.03;0.80;;;10.20;17.40;;;;;;5025783;28;20520;-52
2024/01/03 11:21:59;;;;;;;6.00;0.97;;;10.20;21.40;;;;;;5022782;28;20513;-51
2024/01/03 11:24:28;;;;;;;3.23;1.17;;;10.10;22.80;;;;;;5019581;28;20450;-52
2024/01/03 11:26:56;;;;;;;5.03;1.13;;;10.10;23.40;;;;;;5023713;28;20445;-51
2024/01/03 11:29:48;;;;;;;2.10;1.27;;;10.10;28.10;;;;;;5017208;28;20443;-52
2024/01/03 11:32:29;;;;;;;9.93;1.50;;;10.10;31.30;;;;;;5024441;28;21081;-53
2024/01/03 11:34:56;;;;;;;7.10;1.87;;;10.10;34.90;;;;;;5023862;28;20529;-51
2024/01/03 11:37:22;;;;;;;7.93;1.30;;;10.10;36.80;;;;;;5022755;28;20957;-52
2024/01/03 11:39:52;;;;;;;2.93;1.10;;;10.10;36.60;;;;;;5019754;28;20443;-51
2024/01/03 11:42:23;;;;;;;4.80;1.60;;;10.10;37.50;;;;;;5020744;28;20190;-51
2024/01/03 11:45:00;;;;;;;7.70;1.17;;;10.10;43.90;;;;;;5018169;28;20450;-50
2024/01/03 11:47:26;;;;;;;4.03;1.70;;;10.00;53.10;;;;;;5017203;28;20461;-50
2024/01/03 11:49:58;;;;;;;6.73;1.50;;;10.10;57.40;;;;;;5017615;28;20823;-52
2024/01/03 11:52:25;;;;;;;8.00;1.10;;;10.00;73.10;;;;;;5020164;28;20338;-50
2024/01/03 11:54:51;;;;;;;8.07;1.30;;;10.00;84.60;;;;;;5013415;28;20965;-51
2024/01/03 11:57:21;;;;;;;14.33;1.80;;;10.00;93.60;;;;;;5022228;28;20435;-51
2024/01/03 12:00:02;;;;;;;4.60;1.30;;;10.00;99.60;;;;;;5031488;28;20450;-53
2024/01/03 12:02:28;;;;;;;5.37;1.07;;;10.00;97.80;;;;;;5020064;28;20500;-52
2024/01/03 12:05:05;;;;;;;9.53;2.60;;;9.90;99.90;;;;;;5016469;28;20449;-53
2024/01/03 12:07:36;;;;;;;7.73;1.37;;;10.00;99.90;;;;;;5022257;28;20501;-52
2024/01/03 12:10:05;;;;;;;8.47;1.50;;;10.00;99.90;;;;;;5022101;28;20466;-54
2024/01/03 12:12:32;;;;;;;8.63;1.70;;;10.00;99.90;;;;;;5024078;28;20462;-52
2024/01/03 12:14:58;;;;;;;8.03;1.77;;;10.00;99.90;;;;;;5039936;28;20469;-53
2024/01/03 12:17:33;;;;;;;6.90;1.53;;;10.00;99.90;;;;;;5048984;28;20438;-52
2024/01/03 12:20:13;;;;;;;12.33;2.47;;;10.00;99.90;;;;;;5035769;28;20187;-53
2024/01/03 12:22:39;;;;;;;7.50;1.40;;;9.90;99.90;;;;;;5031820;28;20441;-52
2024/01/03 12:25:05;;;;;;;5.57;2.03;;;9.80;99.90;;;;;;5029542;28;20430;-52
2024/01/03 12:27:33;;;;;;;5.50;1.40;;;9.70;99.90;;;;;;5029459;28;20512;-53
2024/01/03 12:30:18;;;;;;;5.37;1.90;;;9.70;99.90;;;;;;5028277;28;20447;-52
2024/01/03 12:32:46;;;;;;;3.53;1.33;;;9.80;99.90;;;;;;5029060;28;20484;-53
2024/01/03 12:35:12;;;;;;;2.97;1.43;;;9.80;99.90;;;;;;5032938;28;20470;-53
2024/01/03 12:37:46;;;;;;;5.33;1.10;;;9.80;98.20;;;;;;5031604;28;20503;-53
2024/01/03 12:40:16;;;;;;;5.67;0.90;;;9.90;99.90;;;;;;5029620;28;20438;-51
2024/01/03 12:42:45;;;;;;;6.43;1.80;;;9.80;99.90;;;;;;5030424;28;20438;-51
2024/01/03 12:45:11;;;;;;;2.87;1.30;;;9.80;99.90;;;;;;5026933;28;20431;-51
2024/01/03 12:47:37;;;;;;;5.33;1.57;;;9.70;99.90;;;;;;5034554;28;20811;-52
2024/01/03 12:50:05;;;;;;;5.13;1.37;;;9.70;99.90;;;;;;5027491;28;20507;-51
2024/01/03 12:52:31;;;;;;;5.90;1.40;;;9.70;99.90;;;;;;5032647;28;20462;-51
2024/01/03 12:54:57;;;;;;;4.87;1.93;;;9.70;99.90;;;;;;5031722;28;20469;-51
2024/01/03 12:57:23;;;;;;;8.90;1.70;;;9.60;99.90;;;;;;5030406;28;20426;-52
2024/01/03 12:59:49;;;;;;;7.77;1.60;;;9.60;99.90;;;;;;5044843;28;20484;-51
2024/01/03 13:02:17;;;;;;;7.20;1.80;;;9.50;99.90;;;;;;5028980;28;20250;-51